sensor_id;sensor_type;location;lat;lon;timestamp;pressure;altitude;pressure_sealevel;temperature;humidity
26865;BME280;40618;51.166;10.322;2023-04-25T00:01:15;96572.28;;;5.63;64.28
26865;BME280;40618;51.166;10.322;2023-04-25T00:03:40;96576.47;;;5.67;64.20
26865;BME280;40618;51.166;10.322;2023-04-25T00:06:06;96566.06;;;5.72;64.11
26865;BME280;40618;51.166;10.322;2023-04-25T00:08:32;96571.03;;;5.80;64.12
26865;BME280;40618;51.166;10.322;2023-04-25T00:10:58;96572.63;;;5.82;64.17
26865;BME280;40618;51.166;10.322;2023-04-25T00:13:25;96564.06;;;5.83;64.11
26865;BME280;40618;51.166;10.322;2023-04-25T00:15:52;96569.25;;;5.82;64.37
26865;BME280;40618;51.166;10.322;2023-04-25T00:18:21;96570.25;;;5.76;63.97
26865;BME280;40618;51.166;10.322;2023-04-25T00:20:47;96574.59;;;5.72;64.15
26865;BME280;40618;51.166;10.322;2023-04-25T00:23:14;96569.72;;;5.63;64.12
26865;BME280;40618;51.166;10.322;2023-04-25T00:25:44;96571.56;;;5.58;63.93
26865;BME280;40618;51.166;10.322;2023-04-25T00:28:11;96570.78;;;5.54;64.37
26865;BME280;40618;51.166;10.322;2023-04-25T00:30:37;96568.16;;;5.56;64.29
26865;BME280;40618;51.166;10.322;2023-04-25T00:33:03;96571.44;;;5.63;64.64
26865;BME280;40618;51.166;10.322;2023-04-25T00:35:29;96567.81;;;5.71;64.78
26865;BME280;40618;51.166;10.322;2023-04-25T00:37:55;96569.28;;;5.80;64.83
26865;BME280;40618;51.166;10.322;2023-04-25T00:40:20;96565.84;;;5.81;64.13
26865;BME280;40618;51.166;10.322;2023-04-25T00:42:47;96564.97;;;5.81;64.65
26865;BME280;40618;51.166;10.322;2023-04-25T00:45:14;96557.28;;;5.81;64.48
26865;BME280;40618;51.166;10.322;2023-04-25T00:47:41;96574.38;;;5.82;64.33
26865;BME280;40618;51.166;10.322;2023-04-25T00:50:08;96564.88;;;5.85;64.44
26865;BME280;40618;51.166;10.322;2023-04-25T00:52:34;96566.59;;;5.85;64.33
26865;BME280;40618;51.166;10.322;2023-04-25T00:55:01;96563.31;;;5.80;64.46
26865;BME280;40618;51.166;10.322;2023-04-25T00:57:27;96559.09;;;5.77;64.69
26865;BME280;40618;51.166;10.322;2023-04-25T00:59:54;96558.19;;;5.80;64.75
26865;BME280;40618;51.166;10.322;2023-04-25T01:02:20;96554.97;;;5.71;64.35
26865;BME280;40618;51.166;10.322;2023-04-25T01:04:47;96569.03;;;5.55;64.29
26865;BME280;40618;51.166;10.322;2023-04-25T01:07:14;96564.06;;;5.49;64.61
26865;BME280;40618;51.166;10.322;2023-04-25T01:09:40;96557.44;;;5.40;64.41
26865;BME280;40618;51.166;10.322;2023-04-25T01:12:06;96558.53;;;5.30;64.75
26865;BME280;40618;51.166;10.322;2023-04-25T01:14:32;96573.13;;;5.28;64.86
26865;BME280;40618;51.166;10.322;2023-04-25T01:16:58;96561.88;;;5.33;64.92
26865;BME280;40618;51.166;10.322;2023-04-25T01:19:24;96564.28;;;5.39;64.48
26865;BME280;40618;51.166;10.322;2023-04-25T01:21:50;96566.00;;;5.39;65.12
26865;BME280;40618;51.166;10.322;2023-04-25T01:24:17;96566.88;;;5.38;64.99
26865;BME280;40618;51.166;10.322;2023-04-25T01:26:43;96579.84;;;5.33;64.75
26865;BME280;40618;51.166;10.322;2023-04-25T01:29:19;96571.28;;;5.33;65.50
26865;BME280;40618;51.166;10.322;2023-04-25T01:31:45;96564.47;;;5.32;64.83
26865;BME280;40618;51.166;10.322;2023-04-25T01:34:12;96557.66;;;5.31;64.92
26865;BME280;40618;51.166;10.322;2023-04-25T01:36:38;96569.63;;;5.32;65.32
26865;BME280;40618;51.166;10.322;2023-04-25T01:39:05;96553.31;;;5.33;65.28
26865;BME280;40618;51.166;10.322;2023-04-25T01:41:31;96568.78;;;5.30;65.06
26865;BME280;40618;51.166;10.322;2023-04-25T01:43:57;96573.97;;;5.28;65.58
26865;BME280;40618;51.166;10.322;2023-04-25T01:46:22;96577.19;;;5.36;65.06
26865;BME280;40618;51.166;10.322;2023-04-25T01:48:48;96574.50;;;5.41;65.27
26865;BME280;40618;51.166;10.322;2023-04-25T01:51:14;96571.03;;;5.43;65.49
26865;BME280;40618;51.166;10.322;2023-04-25T01:53:40;96573.56;;;5.45;65.29
26865;BME280;40618;51.166;10.322;2023-04-25T01:56:07;96571.88;;;5.44;65.92
26865;BME280;40618;51.166;10.322;2023-04-25T01:58:33;96561.63;;;5.42;65.41
26865;BME280;40618;51.166;10.322;2023-04-25T02:00:59;96565.13;;;5.40;65.33
26865;BME280;40618;51.166;10.322;2023-04-25T02:03:24;96567.00;;;5.33;65.37
26865;BME280;40618;51.166;10.322;2023-04-25T02:05:50;96571.34;;;5.30;65.24
26865;BME280;40618;51.166;10.322;2023-04-25T02:08:16;96572.19;;;5.30;65.67
26865;BME280;40618;51.166;10.322;2023-04-25T02:10:43;96571.53;;;5.22;65.25
26865;BME280;40618;51.166;10.322;2023-04-25T02:13:08;96570.81;;;5.17;65.58
26865;BME280;40618;51.166;10.322;2023-04-25T02:15:34;96575.75;;;5.24;65.57
26865;BME280;40618;51.166;10.322;2023-04-25T02:18:00;96571.41;;;5.28;65.84
26865;BME280;40618;51.166;10.322;2023-04-25T02:20:28;96575.75;;;5.24;65.82
26865;BME280;40618;51.166;10.322;2023-04-25T02:22:55;96576.00;;;5.14;65.88
26865;BME280;40618;51.166;10.322;2023-04-25T02:25:21;96576.22;;;5.03;65.51
26865;BME280;40618;51.166;10.322;2023-04-25T02:27:48;96572.97;;;4.96;65.93
26865;BME280;40618;51.166;10.322;2023-04-25T02:30:14;96573.84;;;4.95;65.54
26865;BME280;40618;51.166;10.322;2023-04-25T02:32:40;96565.25;;;4.98;65.53
26865;BME280;40618;51.166;10.322;2023-04-25T02:35:06;96568.00;;;4.88;65.76
26865;BME280;40618;51.166;10.322;2023-04-25T02:37:34;96572.25;;;4.89;66.03
26865;BME280;40618;51.166;10.322;2023-04-25T02:40:01;96572.16;;;4.94;66.37
26865;BME280;40618;51.166;10.322;2023-04-25T02:42:28;96562.63;;;4.99;66.18
26865;BME280;40618;51.166;10.322;2023-04-25T02:44:53;96562.59;;;5.01;65.98
26865;BME280;40618;51.166;10.322;2023-04-25T02:47:19;96564.38;;;4.97;66.08
26865;BME280;40618;51.166;10.322;2023-04-25T02:49:45;96567.22;;;4.85;66.37
26865;BME280;40618;51.166;10.322;2023-04-25T02:52:11;96568.13;;;4.82;66.08
26865;BME280;40618;51.166;10.322;2023-04-25T02:54:38;96561.44;;;4.75;66.33
26865;BME280;40618;51.166;10.322;2023-04-25T02:57:04;96562.47;;;4.68;66.45
26865;BME280;40618;51.166;10.322;2023-04-25T02:59:30;96560.78;;;4.65;66.60
26865;BME280;40618;51.166;10.322;2023-04-25T03:01:56;96562.47;;;4.68;66.60
26865;BME280;40618;51.166;10.322;2023-04-25T03:04:21;96566.56;;;4.75;66.96
26865;BME280;40618;51.166;10.322;2023-04-25T03:06:49;96567.22;;;4.85;66.44
26865;BME280;40618;51.166;10.322;2023-04-25T03:09:15;96565.47;;;4.87;66.43
26865;BME280;40618;51.166;10.322;2023-04-25T03:11:41;96568.13;;;4.82;66.68
26865;BME280;40618;51.166;10.322;2023-04-25T03:14:07;96572.34;;;4.85;66.40
26865;BME280;40618;51.166;10.322;2023-04-25T03:16:33;96571.47;;;4.86;66.17
26865;BME280;40618;51.166;10.322;2023-04-25T03:18:59;96578.34;;;4.84;66.44
26865;BME280;40618;51.166;10.322;2023-04-25T03:21:25;96569.78;;;4.85;66.82
26865;BME280;40618;51.166;10.322;2023-04-25T03:23:51;96587.81;;;4.82;66.53
26865;BME280;40618;51.166;10.322;2023-04-25T03:26:17;96571.84;;;4.69;66.60
26865;BME280;40618;51.166;10.322;2023-04-25T03:28:42;96573.03;;;4.51;66.45
26865;BME280;40618;51.166;10.322;2023-04-25T03:31:08;96574.19;;;4.36;66.90
26865;BME280;40618;51.166;10.322;2023-04-25T03:33:34;96568.44;;;4.24;66.92
26865;BME280;40618;51.166;10.322;2023-04-25T03:35:59;96573.56;;;4.24;67.41
26865;BME280;40618;51.166;10.322;2023-04-25T03:38:25;96579.34;;;4.34;67.23
26865;BME280;40618;51.166;10.322;2023-04-25T03:40:51;96571.59;;;4.39;66.88
26865;BME280;40618;51.166;10.322;2023-04-25T03:43:17;96571.44;;;4.45;66.99
26865;BME280;40618;51.166;10.322;2023-04-25T03:45:42;96573.94;;;4.50;67.26
26865;BME280;40618;51.166;10.322;2023-04-25T03:48:08;96567.22;;;4.43;66.72
26865;BME280;40618;51.166;10.322;2023-04-25T03:50:34;96573.25;;;4.42;67.19
26865;BME280;40618;51.166;10.322;2023-04-25T03:53:00;96571.56;;;4.40;67.22
26865;BME280;40618;51.166;10.322;2023-04-25T03:55:25;96576.69;;;4.40;67.30
26865;BME280;40618;51.166;10.322;2023-04-25T03:57:51;96580.03;;;4.43;67.17
26865;BME280;40618;51.166;10.322;2023-04-25T04:00:16;96578.31;;;4.45;67.30
26865;BME280;40618;51.166;10.322;2023-04-25T04:02:42;96586.06;;;4.40;67.05
26865;BME280;40618;51.166;10.322;2023-04-25T04:05:08;96582.78;;;4.35;67.45
26865;BME280;40618;51.166;10.322;2023-04-25T04:07:34;96588.97;;;4.23;66.87
26865;BME280;40618;51.166;10.322;2023-04-25T04:10:07;96585.56;;;4.21;67.63
26865;BME280;40618;51.166;10.322;2023-04-25T04:12:36;96590.69;;;4.22;66.84
26865;BME280;40618;51.166;10.322;2023-04-25T04:15:03;96590.66;;;4.24;67.17
26865;BME280;40618;51.166;10.322;2023-04-25T04:17:30;96599.28;;;4.20;67.10
26865;BME280;40618;51.166;10.322;2023-04-25T04:19:56;96592.44;;;4.20;67.92
26865;BME280;40618;51.166;10.322;2023-04-25T04:22:22;96589.81;;;4.23;67.90
26865;BME280;40618;51.166;10.322;2023-04-25T04:24:48;96586.34;;;4.26;67.18
26865;BME280;40618;51.166;10.322;2023-04-25T04:27:18;96585.56;;;4.21;67.76
26865;BME280;40618;51.166;10.322;2023-04-25T04:29:47;96582.09;;;4.25;67.74
26865;BME280;40618;51.166;10.322;2023-04-25T04:32:14;96586.25;;;4.32;67.84
26865;BME280;40618;51.166;10.322;2023-04-25T04:34:40;96591.22;;;4.38;67.46
26865;BME280;40618;51.166;10.322;2023-04-25T04:37:06;96598.88;;;4.42;67.95
26865;BME280;40618;51.166;10.322;2023-04-25T04:39:36;96593.69;;;4.45;67.60
26865;BME280;40618;51.166;10.322;2023-04-25T04:42:02;96591.97;;;4.45;67.99
26865;BME280;40618;51.166;10.322;2023-04-25T04:44:29;96594.44;;;4.50;67.74
26865;BME280;40618;51.166;10.322;2023-04-25T04:46:58;96594.28;;;4.57;68.00
26865;BME280;40618;51.166;10.322;2023-04-25T04:49:24;96589.00;;;4.65;67.93
26865;BME280;40618;51.166;10.322;2023-04-25T04:51:49;96599.25;;;4.65;68.07
26865;BME280;40618;51.166;10.322;2023-04-25T04:54:15;96600.06;;;4.67;67.94
26865;BME280;40618;51.166;10.322;2023-04-25T04:56:41;96604.25;;;4.71;68.03
26865;BME280;40618;51.166;10.322;2023-04-25T04:59:07;96603.38;;;4.72;67.45
26865;BME280;40618;51.166;10.322;2023-04-25T05:01:33;96603.31;;;4.75;67.54
26865;BME280;40618;51.166;10.322;2023-04-25T05:04:01;96610.84;;;4.83;67.55
26865;BME280;40618;51.166;10.322;2023-04-25T05:06:27;96611.69;;;4.84;67.77
26865;BME280;40618;51.166;10.322;2023-04-25T05:08:57;96618.59;;;4.82;67.62
26865;BME280;40618;51.166;10.322;2023-04-25T05:11:23;96614.34;;;4.79;67.62
26865;BME280;40618;51.166;10.322;2023-04-25T05:13:51;96621.94;;;4.84;67.72
26865;BME280;40618;51.166;10.322;2023-04-25T05:16:17;96626.19;;;4.86;67.91
26865;BME280;40618;51.166;10.322;2023-04-25T05:18:43;96620.19;;;4.87;67.84
26865;BME280;40618;51.166;10.322;2023-04-25T05:21:09;96615.94;;;4.85;67.80
26865;BME280;40618;51.166;10.322;2023-04-25T05:23:35;96623.59;;;4.86;67.61
26865;BME280;40618;51.166;10.322;2023-04-25T05:26:00;96621.00;;;4.88;67.66
26865;BME280;40618;51.166;10.322;2023-04-25T05:28:26;96625.19;;;4.94;67.96
26865;BME280;40618;51.166;10.322;2023-04-25T05:30:52;96630.34;;;4.92;68.06
26865;BME280;40618;51.166;10.322;2023-04-25T05:33:18;96624.28;;;4.96;67.96
26865;BME280;40618;51.166;10.322;2023-04-25T05:35:43;96630.22;;;4.98;68.14
26865;BME280;40618;51.166;10.322;2023-04-25T05:38:10;96643.09;;;4.97;67.80
26865;BME280;40618;51.166;10.322;2023-04-25T05:40:36;96640.63;;;4.90;67.65
26865;BME280;40618;51.166;10.322;2023-04-25T05:43:01;96637.31;;;4.87;67.84
26865;BME280;40618;51.166;10.322;2023-04-25T05:45:27;96642.44;;;4.87;67.81
26865;BME280;40618;51.166;10.322;2023-04-25T05:47:53;96655.28;;;4.85;67.99
26865;BME280;40618;51.166;10.322;2023-04-25T05:50:19;96651.78;;;4.88;68.50
26865;BME280;40618;51.166;10.322;2023-04-25T05:52:44;96650.84;;;4.92;68.23
26865;BME280;40618;51.166;10.322;2023-04-25T05:55:10;96648.28;;;4.92;67.98
26865;BME280;40618;51.166;10.322;2023-04-25T05:57:35;96657.78;;;4.88;68.36
26865;BME280;40618;51.166;10.322;2023-04-25T06:00:01;96649.19;;;4.91;68.45
26865;BME280;40618;51.166;10.322;2023-04-25T06:02:28;96663.69;;;4.94;67.80
26865;BME280;40618;51.166;10.322;2023-04-25T06:04:53;96661.13;;;4.92;68.54
26865;BME280;40618;51.166;10.322;2023-04-25T06:07:19;96660.28;;;4.91;67.82
26865;BME280;40618;51.166;10.322;2023-04-25T06:09:45;96660.31;;;4.90;67.85
26865;BME280;40618;51.166;10.322;2023-04-25T06:12:11;96663.78;;;4.87;68.44
26865;BME280;40618;51.166;10.322;2023-04-25T06:14:37;96666.31;;;4.89;68.70
26865;BME280;40618;51.166;10.322;2023-04-25T06:17:03;96665.44;;;4.90;68.20
26865;BME280;40618;51.166;10.322;2023-04-25T06:19:34;96671.56;;;4.84;68.28
26865;BME280;40618;51.166;10.322;2023-04-25T06:22:02;96670.66;;;4.87;68.82
26865;BME280;40618;51.166;10.322;2023-04-25T06:24:28;96664.63;;;4.88;68.27
26865;BME280;40618;51.166;10.322;2023-04-25T06:26:54;96665.47;;;4.88;69.01
26865;BME280;40618;51.166;10.322;2023-04-25T06:29:20;96668.78;;;4.95;68.94
26865;BME280;40618;51.166;10.322;2023-04-25T06:31:46;96673.78;;;5.00;68.74
26865;BME280;40618;51.166;10.322;2023-04-25T06:34:12;96672.03;;;5.03;69.25
26865;BME280;40618;51.166;10.322;2023-04-25T06:36:37;96677.94;;;5.05;68.83
26865;BME280;40618;51.166;10.322;2023-04-25T06:39:03;96676.22;;;5.07;68.98
26865;BME280;40618;51.166;10.322;2023-04-25T06:41:29;96681.28;;;5.11;69.12
26865;BME280;40618;51.166;10.322;2023-04-25T06:43:54;96685.53;;;5.12;69.16
26865;BME280;40618;51.166;10.322;2023-04-25T06:46:20;96678.59;;;5.17;69.05
26865;BME280;40618;51.166;10.322;2023-04-25T06:48:45;96691.44;;;5.15;69.18
26865;BME280;40618;51.166;10.322;2023-04-25T06:51:11;96682.09;;;5.13;68.88
26865;BME280;40618;51.166;10.322;2023-04-25T06:53:38;96690.81;;;5.04;68.96
26865;BME280;40618;51.166;10.322;2023-04-25T06:56:05;96687.66;;;4.91;69.09
26865;BME280;40618;51.166;10.322;2023-04-25T06:58:31;96691.97;;;4.89;69.42
26865;BME280;40618;51.166;10.322;2023-04-25T07:00:56;96694.50;;;4.90;69.61
26865;BME280;40618;51.166;10.322;2023-04-25T07:03:22;96700.59;;;4.85;69.81
26865;BME280;40618;51.166;10.322;2023-04-25T07:05:49;96703.19;;;4.83;69.42
26865;BME280;40618;51.166;10.322;2023-04-25T07:08:15;96710.78;;;4.88;69.75
26865;BME280;40618;51.166;10.322;2023-04-25T07:10:40;96707.28;;;4.94;69.91
26865;BME280;40618;51.166;10.322;2023-04-25T07:13:06;96711.53;;;4.95;69.50
26865;BME280;40618;51.166;10.322;2023-04-25T07:15:32;96712.41;;;4.92;69.85
26865;BME280;40618;51.166;10.322;2023-04-25T07:17:57;96709.13;;;4.87;69.99
26865;BME280;40618;51.166;10.322;2023-04-25T07:20:23;96721.06;;;4.89;70.31
26865;BME280;40618;51.166;10.322;2023-04-25T07:22:49;96720.16;;;4.90;69.91
26865;BME280;40618;51.166;10.322;2023-04-25T07:25:15;96726.94;;;4.93;70.46
26865;BME280;40618;51.166;10.322;2023-04-25T07:27:41;96727.09;;;4.87;70.08
26865;BME280;40618;51.166;10.322;2023-04-25T07:30:08;96729.66;;;4.87;70.34
26865;BME280;40618;51.166;10.322;2023-04-25T07:32:34;96726.91;;;4.95;70.84
26865;BME280;40618;51.166;10.322;2023-04-25T07:35:00;96731.94;;;5.01;70.75
26865;BME280;40618;51.166;10.322;2023-04-25T07:37:27;96736.97;;;5.05;70.69
26865;BME280;40618;51.166;10.322;2023-04-25T07:39:52;96736.09;;;5.06;70.60
26865;BME280;40618;51.166;10.322;2023-04-25T07:42:18;96739.56;;;5.04;70.43
26865;BME280;40618;51.166;10.322;2023-04-25T07:44:43;96740.44;;;5.04;70.66
26865;BME280;40618;51.166;10.322;2023-04-25T07:47:09;96743.03;;;5.01;70.92
26865;BME280;40618;51.166;10.322;2023-04-25T07:49:36;96745.56;;;5.04;70.87
26865;BME280;40618;51.166;10.322;2023-04-25T07:52:03;96753.06;;;5.14;70.90
26865;BME280;40618;51.166;10.322;2023-04-25T07:54:31;96753.00;;;5.18;71.19
26865;BME280;40618;51.166;10.322;2023-04-25T07:56:57;96758.09;;;5.20;70.72
26865;BME280;40618;51.166;10.322;2023-04-25T07:59:24;96761.59;;;5.16;71.07
26865;BME280;40618;51.166;10.322;2023-04-25T08:01:50;96760.69;;;5.18;70.90
26865;BME280;40618;51.166;10.322;2023-04-25T08:04:15;96758.84;;;5.23;70.92
26865;BME280;40618;51.166;10.322;2023-04-25T08:06:42;96769.84;;;5.30;70.97
26865;BME280;40618;51.166;10.322;2023-04-25T08:09:08;96774.94;;;5.33;70.75
26865;BME280;40618;51.166;10.322;2023-04-25T08:11:36;96777.47;;;5.35;70.87
26865;BME280;40618;51.166;10.322;2023-04-25T08:14:02;96773.97;;;5.39;70.95
26865;BME280;40618;51.166;10.322;2023-04-25T08:16:28;96784.13;;;5.43;71.08
26865;BME280;40618;51.166;10.322;2023-04-25T08:18:54;96784.13;;;5.43;70.93
26865;BME280;40618;51.166;10.322;2023-04-25T08:21:19;96790.09;;;5.46;70.65
26865;BME280;40618;51.166;10.322;2023-04-25T08:23:45;96792.56;;;5.50;70.92
26865;BME280;40618;51.166;10.322;2023-04-25T08:26:11;96799.28;;;5.56;70.58
26865;BME280;40618;51.166;10.322;2023-04-25T08:28:36;96791.63;;;5.54;70.58
26865;BME280;40618;51.166;10.322;2023-04-25T08:31:02;96791.50;;;5.59;70.94
26865;BME280;40618;51.166;10.322;2023-04-25T08:33:28;96795.78;;;5.60;70.77
26865;BME280;40618;51.166;10.322;2023-04-25T08:35:55;96795.75;;;5.62;70.62
26865;BME280;40618;51.166;10.322;2023-04-25T08:38:21;96795.75;;;5.63;70.41
26865;BME280;40618;51.166;10.322;2023-04-25T08:40:49;96796.63;;;5.61;70.50
26865;BME280;40618;51.166;10.322;2023-04-25T08:43:19;96804.47;;;5.54;70.78
26865;BME280;40618;51.166;10.322;2023-04-25T08:45:46;96803.03;;;5.39;70.79
26865;BME280;40618;51.166;10.322;2023-04-25T08:48:13;96801.47;;;5.32;70.45
26865;BME280;40618;51.166;10.322;2023-04-25T08:50:49;96803.13;;;5.36;70.98
26865;BME280;40618;51.166;10.322;2023-04-25T08:53:16;96810.75;;;5.39;71.13
26865;BME280;40618;51.166;10.322;2023-04-25T08:55:58;96813.38;;;5.36;71.11
26865;BME280;40618;51.166;10.322;2023-04-25T08:58:24;96807.38;;;5.37;71.05
26865;BME280;40618;51.166;10.322;2023-04-25T09:00:51;96821.84;;;5.41;70.99
26865;BME280;40618;51.166;10.322;2023-04-25T09:03:18;96826.16;;;5.39;71.17
26865;BME280;40618;51.166;10.322;2023-04-25T09:05:44;96836.34;;;5.42;70.95
26865;BME280;40618;51.166;10.322;2023-04-25T09:08:10;96833.78;;;5.44;71.29
26865;BME280;40618;51.166;10.322;2023-04-25T09:10:36;96838.88;;;5.46;71.33
26865;BME280;40618;51.166;10.322;2023-04-25T09:13:13;96842.38;;;5.41;70.93
26865;BME280;40618;51.166;10.322;2023-04-25T09:15:50;96844.91;;;5.43;70.93
26865;BME280;40618;51.166;10.322;2023-04-25T09:20:54;96852.56;;;5.46;71.36
26865;BME280;40618;51.166;10.322;2023-04-25T09:23:22;96852.56;;;5.46;70.52
26865;BME280;40618;51.166;10.322;2023-04-25T09:25:49;96851.63;;;5.50;70.78
26865;BME280;40618;51.166;10.322;2023-04-25T09:28:23;96854.94;;;5.55;71.23
26865;BME280;40618;51.166;10.322;2023-04-25T09:30:57;96865.09;;;5.63;70.75
26865;BME280;40618;51.166;10.322;2023-04-25T09:33:32;96857.97;;;5.76;71.04
26865;BME280;40618;51.166;10.322;2023-04-25T09:36:08;96865.50;;;5.85;70.75
26865;BME280;40618;51.166;10.322;2023-04-25T09:38:45;96864.50;;;5.91;70.65
26865;BME280;40618;51.166;10.322;2023-04-25T09:41:11;96876.41;;;5.95;70.51
26865;BME280;40618;51.166;10.322;2023-04-25T09:43:38;96878.13;;;5.96;70.13
26865;BME280;40618;51.166;10.322;2023-04-25T09:46:09;96876.53;;;5.89;69.94
26865;BME280;40618;51.166;10.322;2023-04-25T09:48:36;96889.59;;;5.80;69.90
26865;BME280;40618;51.166;10.322;2023-04-25T09:51:13;96880.25;;;5.75;70.20
26865;BME280;40618;51.166;10.322;2023-04-25T09:53:41;96889.59;;;5.80;69.95
26865;BME280;40618;51.166;10.322;2023-04-25T09:56:10;96888.66;;;5.82;69.84
26865;BME280;40618;51.166;10.322;2023-04-25T09:58:38;96883.59;;;5.79;70.06
26865;BME280;40618;51.166;10.322;2023-04-25T10:01:06;96885.31;;;5.79;69.79
26865;BME280;40618;51.166;10.322;2023-04-25T10:03:34;96890.38;;;5.82;69.75
26865;BME280;40618;51.166;10.322;2023-04-25T10:06:07;96898.66;;;5.96;69.61
26865;BME280;40618;51.166;10.322;2023-04-25T10:08:54;96895.19;;;6.00;69.60
26865;BME280;40618;51.166;10.322;2023-04-25T10:11:21;96900.34;;;5.97;69.09
26865;BME280;40618;51.166;10.322;2023-04-25T10:13:51;96901.34;;;5.90;69.06
26865;BME280;40618;51.166;10.322;2023-04-25T10:16:17;96903.09;;;5.89;68.97
26865;BME280;40618;51.166;10.322;2023-04-25T10:18:43;96905.72;;;5.85;68.82
26865;BME280;40618;51.166;10.322;2023-04-25T10:21:10;96915.25;;;5.81;68.92
26865;BME280;40618;51.166;10.322;2023-04-25T10:23:36;96911.66;;;5.88;68.85
26865;BME280;40618;51.166;10.322;2023-04-25T10:26:03;96915.78;;;5.96;68.64
26865;BME280;40618;51.166;10.322;2023-04-25T10:28:28;96905.41;;;6.03;68.31
26865;BME280;40618;51.166;10.322;2023-04-25T10:31:02;96905.25;;;6.11;68.33
26865;BME280;40618;51.166;10.322;2023-04-25T10:33:36;96906.69;;;6.23;68.22
26865;BME280;40618;51.166;10.322;2023-04-25T10:36:10;96905.63;;;6.33;68.07
26865;BME280;40618;51.166;10.322;2023-04-25T10:38:37;96904.47;;;6.47;68.05
26865;BME280;40618;51.166;10.322;2023-04-25T10:41:08;96892.88;;;6.66;68.26
26865;BME280;40618;51.166;10.322;2023-04-25T10:43:41;96909.38;;;6.93;67.63
26865;BME280;40618;51.166;10.322;2023-04-25T10:46:25;96911.84;;;6.98;66.80
26865;BME280;40618;51.166;10.322;2023-04-25T10:49:01;96902.38;;;7.00;66.53
26865;BME280;40618;51.166;10.322;2023-04-25T10:51:31;96904.81;;;7.05;66.59
26865;BME280;40618;51.166;10.322;2023-04-25T10:54:04;96921.03;;;7.08;66.24
26865;BME280;40618;51.166;10.322;2023-04-25T10:56:37;96905.59;;;7.08;65.40
26865;BME280;40618;51.166;10.322;2023-04-25T10:59:16;96913.44;;;7.02;65.28
26865;BME280;40618;51.166;10.322;2023-04-25T11:01:46;96913.78;;;6.88;64.52
26865;BME280;40618;51.166;10.322;2023-04-25T11:04:32;96927.69;;;6.81;64.68
26865;BME280;40618;51.166;10.322;2023-04-25T11:07:23;96927.13;;;6.70;64.51
26865;BME280;40618;51.166;10.322;2023-04-25T11:10:01;96934.75;;;6.73;64.52
26865;BME280;40618;51.166;10.322;2023-04-25T11:12:31;96924.59;;;6.67;64.62
26865;BME280;40618;51.166;10.322;2023-04-25T11:15:15;96933.06;;;6.72;64.42
26865;BME280;40618;51.166;10.322;2023-04-25T11:17:41;96934.50;;;6.84;63.84
26865;BME280;40618;51.166;10.322;2023-04-25T11:20:08;96933.56;;;6.88;63.86
26865;BME280;40618;51.166;10.322;2023-04-25T11:22:37;96929.69;;;7.06;64.15
26865;BME280;40618;51.166;10.322;2023-04-25T11:25:07;96926.81;;;7.18;63.74
26865;BME280;40618;51.166;10.322;2023-04-25T11:27:34;96931.41;;;7.40;63.02
26865;BME280;40618;51.166;10.322;2023-04-25T11:30:13;96929.41;;;7.51;62.74
26865;BME280;40618;51.166;10.322;2023-04-25T11:32:40;96933.34;;;7.65;63.51
26865;BME280;40618;51.166;10.322;2023-04-25T11:35:07;96934.94;;;7.69;62.73
26865;BME280;40618;51.166;10.322;2023-04-25T11:37:33;96934.25;;;7.62;62.88
26865;BME280;40618;51.166;10.322;2023-04-25T11:39:59;96926.53;;;7.62;62.57
26865;BME280;40618;51.166;10.322;2023-04-25T11:42:25;96930.91;;;7.60;61.32
26865;BME280;40618;51.166;10.322;2023-04-25T11:44:51;96924.00;;;7.60;61.52
26865;BME280;40618;51.166;10.322;2023-04-25T11:47:17;96930.66;;;7.68;61.85
26865;BME280;40618;51.166;10.322;2023-04-25T11:49:43;96929.59;;;7.76;61.43
26865;BME280;40618;51.166;10.322;2023-04-25T11:52:08;96939.19;;;7.71;60.20
26865;BME280;40618;51.166;10.322;2023-04-25T11:54:37;96939.38;;;7.63;60.55
26865;BME280;40618;51.166;10.322;2023-04-25T11:57:04;96950.66;;;7.59;60.12
26865;BME280;40618;51.166;10.322;2023-04-25T11:59:29;96951.56;;;7.57;60.39
26865;BME280;40618;51.166;10.322;2023-04-25T12:01:55;96954.16;;;7.57;59.50
26865;BME280;40618;51.166;10.322;2023-04-25T12:04:23;96952.75;;;7.45;59.95
26865;BME280;40618;51.166;10.322;2023-04-25T12:06:51;96970.94;;;7.39;60.19
26865;BME280;40618;51.166;10.322;2023-04-25T12:09:31;96968.63;;;7.28;59.79
26865;BME280;40618;51.166;10.322;2023-04-25T12:11:59;96960.22;;;7.20;59.96
26865;BME280;40618;51.166;10.322;2023-04-25T12:14:33;96975.84;;;7.12;59.24
26865;BME280;40618;51.166;10.322;2023-04-25T12:17:01;96974.31;;;7.05;59.59
26865;BME280;40618;51.166;10.322;2023-04-25T12:19:35;96965.75;;;7.04;59.89
26865;BME280;40618;51.166;10.322;2023-04-25T12:22:02;96972.53;;;7.08;59.65
26865;BME280;40618;51.166;10.322;2023-04-25T12:24:29;96967.41;;;7.07;58.88
26865;BME280;40618;51.166;10.322;2023-04-25T12:27:02;96976.84;;;7.06;59.34
26865;BME280;40618;51.166;10.322;2023-04-25T12:29:33;96968.78;;;7.20;59.75
26865;BME280;40618;51.166;10.322;2023-04-25T12:31:59;96975.34;;;7.34;59.93
26865;BME280;40618;51.166;10.322;2023-04-25T12:34:27;96975.91;;;7.47;59.51
26865;BME280;40618;51.166;10.322;2023-04-25T12:36:53;96970.66;;;7.50;58.60
26865;BME280;40618;51.166;10.322;2023-04-25T12:39:22;96973.53;;;7.37;58.40
26865;BME280;40618;51.166;10.322;2023-04-25T12:41:49;96976.13;;;7.37;58.40
26865;BME280;40618;51.166;10.322;2023-04-25T12:44:16;96977.81;;;7.38;57.97
26865;BME280;40618;51.166;10.322;2023-04-25T12:46:42;96974.63;;;7.28;58.19
26865;BME280;40618;51.166;10.322;2023-04-25T12:49:08;96991.00;;;7.26;58.21
26865;BME280;40618;51.166;10.322;2023-04-25T12:51:35;96983.31;;;7.23;58.26
26865;BME280;40618;51.166;10.322;2023-04-25T12:54:02;96990.09;;;7.28;58.73
26865;BME280;40618;51.166;10.322;2023-04-25T12:56:29;96983.19;;;7.29;58.18
26865;BME280;40618;51.166;10.322;2023-04-25T12:58:56;96985.59;;;7.37;58.39
26865;BME280;40618;51.166;10.322;2023-04-25T13:01:23;96987.16;;;7.42;57.21
26865;BME280;40618;51.166;10.322;2023-04-25T13:03:50;96976.91;;;7.39;57.37